Stormwatcher's Retreat Logo




                  Temp     Hi    Low   Out    Dew  Wind  Wind   Wind    Hi    Hi   Wind   Heat    THW   THSW                Rain  Solar   Solar Hi Solar   UV    UV    Hi     Heat    Cool    In     In    In     In     In   In Air          Wind  Wind    ISS   Arc.
  Date    Time     Out   Temp   Temp   Hum    Pt. Speed   Dir    Run Speed   Dir  Chill  Index  Index  Index   Bar    Rain  Rate   Rad.  Energy    Rad.  Index  Dose   UV     D-D     D-D    Temp   Hum    Dew   Heat    EMC Density     ET   Samp   Tx   Recept  Int.
------------------------------------------------------------------------------------------------------------------------------------------------------------------------------------------------------------------------------------------------------------------------
 9/20/18 12:10a   56.6   56.7   56.6    91   54.0   3.0     E   0.50   7.0   ENE   56.6   56.7   56.7   54.3  30.145  0.00  0.00     0     0.00      0     0.0  0.00   0.0   0.058   0.000   73.0    56   56.4   73.1  10.29  .0739    0.000   210    5    100.0   10 
 9/20/18 12:20a   56.4   56.6   56.4    91   53.8   4.0     E   0.67   9.0   ENE   56.3   56.5   56.4   53.9  30.144  0.00  0.00     0     0.00      0     0.0  0.00   0.0   0.060   0.000   73.0    56   56.4   73.1  10.29  .0739    0.000   212    5    100.0   10 
 9/20/18 12:30a   56.2   56.4   56.2    91   53.6   3.0     E   0.50  10.0     E   56.2   56.3   56.3   53.8  30.146  0.00  0.00     0     0.00      0     0.0  0.00   0.0   0.061   0.000   72.9    56   56.3   72.9  10.29  .0739    0.000   211    5    100.0   10 
 9/20/18 12:40a   55.9   56.2   55.9    91   53.3   3.0     E   0.50   5.0   ENE   55.9   56.0   56.0   53.5  30.147  0.00  0.00     0     0.00      0     0.0  0.00   0.0   0.063   0.000   72.9    56   56.3   72.9  10.29  .0739    0.000   213    5    100.0   10 
 9/20/18 12:50a   55.6   55.9   55.6    91   53.0   2.0     E   0.33   6.0     E   55.6   55.7   55.7   53.2  30.144  0.00  0.00     0     0.00      0     0.0  0.00   0.0   0.065   0.000   72.9    56   56.3   72.9  10.29  .0739    0.000   214    5    100.0   10 
 9/20/18  1:00a   55.3   55.6   55.3    91   52.7   2.0   ESE   0.33   4.0   ENE   55.3   55.4   55.4   52.9  30.143  0.00  0.00     0     0.00      0     0.0  0.00   0.0   0.067   0.000   72.9    56   56.3   72.9  10.29  .0739    0.000   211    5    100.0   10 
 9/20/18  1:10a   55.1   55.3   55.1    91   52.5   3.0     E   0.50   7.0   ESE   55.1   55.2   55.2   52.7  30.141  0.00  0.00     0     0.00      0     0.0  0.00   0.0   0.069   0.000   72.9    56   56.3   72.9  10.29  .0739    0.000   212    5    100.0   10 
 9/20/18  1:20a   55.0   55.1   55.0    91   52.4   3.0     E   0.50   6.0   ESE   55.0   55.1   55.1   52.6  30.142  0.00  0.00     0     0.00      0     0.0  0.00   0.0   0.069   0.000   72.8    56   56.2   72.8  10.29  .0739    0.000   212    5    100.0   10 
 9/20/18  1:30a   54.9   55.0   54.9    91   52.3   2.0     E   0.33   4.0     E   54.9   55.0   55.0   52.5  30.143  0.00  0.00     0     0.00      0     0.0  0.00   0.0   0.070   0.000   72.8    56   56.2   72.8  10.29  .0740    0.000   212    5    100.0   10 
 9/20/18  1:40a   54.8   54.9   54.8    91   52.2   2.0     E   0.33   4.0     E   54.8   54.9   54.9   52.4  30.144  0.00  0.00     0     0.00      0     0.0  0.00   0.0   0.071   0.000   72.8    56   56.2   72.8  10.29  .0740    0.000   212    5    100.0   10 
 9/20/18  1:50a   54.7   54.8   54.7    91   52.1   2.0   ESE   0.33   4.0   ESE   54.7   54.8   54.8   52.3  30.147  0.00  0.00     0     0.00      0     0.0  0.00   0.0   0.072   0.000   72.7    56   56.1   72.6  10.30  .0740    0.000   212    5    100.0   10 
 9/20/18  2:00a   54.5   54.7   54.5    91   51.9   1.0   ESE   0.17   2.0   ESE   54.5   54.6   54.6   52.0  30.149  0.00  0.00     0     0.00      0     0.0  0.00   0.0   0.073   0.000   72.7    55   55.6   72.5  10.10  .0740    0.000   212    5    100.0   10 
 9/20/18  2:10a   54.2   54.5   54.2    91   51.6   1.0   ESE   0.17   2.0   ESE   54.2   54.3   54.3   51.7  30.148  0.00  0.00     0     0.00      0     0.0  0.00   0.0   0.075   0.000   72.6    55   55.5   72.4  10.10  .0740    0.000   211    5    100.0   10 
 9/20/18  2:20a   54.1   54.2   54.1    91   51.5   1.0   ESE   0.17   2.0   ESE   54.1   54.2   54.2   51.6  30.151  0.00  0.00     0     0.00      0     0.0  0.00   0.0   0.076   0.000   72.6    55   55.5   72.4  10.10  .0740    0.000   207    5    100.0   10 
 9/20/18  2:30a   53.9   54.1   53.9    91   51.3   1.0   ESE   0.17   2.0   ESE   53.9   54.0   54.0   51.4  30.151  0.00  0.00     0     0.00      0     0.0  0.00   0.0   0.077   0.000   72.6    55   55.5   72.4  10.10  .0740    0.000   211    5    100.0   10 
 9/20/18  2:40a   53.8   53.9   53.8    91   51.2   2.0   ESE   0.33   4.0   ESE   53.8   53.9   53.9   51.3  30.148  0.00  0.00     0     0.00      0     0.0  0.00   0.0   0.078   0.000   72.5    55   55.4   72.3  10.10  .0740    0.000   210    5    100.0   10 
 9/20/18  2:50a   53.9   53.9   53.8    91   51.3   2.0   ESE   0.33   4.0     E   53.9   54.0   54.0   51.4  30.146  0.00  0.00     0     0.00      0     0.0  0.00   0.0   0.077   0.000   72.5    55   55.4   72.3  10.10  .0740    0.000   213    5    100.0   10 
 9/20/18  3:00a   53.9   53.9   53.9    91   51.3   2.0   ESE   0.33   6.0   ESE   53.9   54.0   54.0   51.4  30.146  0.00  0.00     0     0.00      0     0.0  0.00   0.0   0.077   0.000   72.4    55   55.3   72.1  10.10  .0740    0.000   211    5    100.0   10 
 9/20/18  3:10a   53.9   53.9   53.9    91   51.3   1.0     E   0.17   3.0     E   53.9   54.0   54.0   51.4  30.149  0.00  0.00     0     0.00      0     0.0  0.00   0.0   0.077   0.000   72.4    55   55.3   72.1  10.10  .0741    0.000   212    5    100.0   10 
 9/20/18  3:20a   53.5   53.9   53.5    91   50.9   1.0     E   0.17   2.0     E   53.5   53.6   53.6   51.0  30.151  0.00  0.00     0     0.00      0     0.0  0.00   0.0   0.080   0.000   72.3    55   55.2   72.0  10.10  .0741    0.000   212    5    100.0   10 
 9/20/18  3:30a   53.2   53.5   53.2    91   50.6   1.0     E   0.17   2.0     E   53.2   53.3   53.3   50.7  30.150  0.00  0.00     0     0.00      0     0.0  0.00   0.0   0.082   0.000   72.3    55   55.2   72.0  10.10  .0741    0.000   212    5    100.0   10 
 9/20/18  3:40a   53.1   53.2   53.1    91   50.5   0.0     E   0.00   1.0     E   53.1   53.2   53.2   50.6  30.151  0.00  0.00     0     0.00      0     0.0  0.00   0.0   0.083   0.000   72.3    55   55.2   72.0  10.10  .0741    0.000   211    5    100.0   10 
 9/20/18  3:50a   52.9   53.2   52.9    91   50.3   0.0     E   0.00   1.0     E   52.9   53.0   53.0   50.4  30.149  0.00  0.00     0     0.00      0     0.0  0.00   0.0   0.084   0.000   72.2    55   55.1   71.8  10.11  .0741    0.000   213    5    100.0   10 
 9/20/18  4:00a   52.6   53.0   52.6    91   50.0   0.0   ---   0.00   0.0   ---   52.6   52.8   52.8   50.2  30.148  0.00  0.00     0     0.00      0     0.0  0.00   0.0   0.086   0.000   72.2    55   55.1   71.8  10.11  .0741    0.000   213    5    100.0   10 
 9/20/18  4:10a   52.4   52.6   52.4    91   49.8   0.0   ---   0.00   0.0   ---   52.4   52.6   52.6   50.0  30.147  0.00  0.00     0     0.00      0     0.0  0.00   0.0   0.087   0.000   72.1    55   55.0   71.6  10.11  .0741    0.000   211    5    100.0   10 
 9/20/18  4:20a   52.2   52.4   52.2    91   49.7   0.0     E   0.00   2.0     E   52.2   52.4   52.4   49.8  30.147  0.00  0.00     0     0.00      0     0.0  0.00   0.0   0.089   0.000   72.0    55   54.9   71.5  10.11  .0741    0.000   211    5    100.0   10 
 9/20/18  4:30a   52.6   52.6   52.2    92   50.3   0.0     E   0.00   1.0     E   52.6   52.8   52.8   50.2  30.148  0.00  0.00     0     0.00      0     0.0  0.00   0.0   0.086   0.000   72.0    55   54.9   71.5  10.11  .0741    0.000   210    5    100.0   10 
 9/20/18  4:40a   52.9   53.0   52.6    92   50.6   0.0   ---   0.00   0.0   ---   52.9   53.1   53.1   50.5  30.154  0.00  0.00     0     0.00      0     0.0  0.00   0.0   0.084   0.000   72.0    55   54.9   71.5  10.11  .0741    0.000   211    5    100.0   10 
 9/20/18  4:50a   52.8   52.9   52.8    92   50.5   0.0   ---   0.00   0.0   ---   52.8   53.0   53.0   50.4  30.155  0.00  0.00     0     0.00      0     0.0  0.00   0.0   0.085   0.000   71.9    55   54.9   71.4  10.11  .0742    0.000   212    5    100.0   10 
 9/20/18  5:00a   52.1   52.8   52.1    91   49.6   0.0   ---   0.00   0.0   ---   52.1   52.3   52.3   49.7  30.157  0.00  0.00     0     0.00      0     0.0  0.00   0.0   0.090   0.000   71.9    55   54.9   71.4  10.11  .0742    0.000   210    5    100.0   10 
 9/20/18  5:10a   51.6   52.1   51.6    92   49.4   0.0   ---   0.00   0.0   ---   51.6   51.9   51.9   49.3  30.156  0.00  0.00     0     0.00      0     0.0  0.00   0.0   0.093   0.000   71.8    55   54.8   71.2  10.11  .0742    0.000   211    5    100.0   10 
 9/20/18  5:20a   51.4   51.6   51.4    92   49.2   0.0   ---   0.00   0.0   ---   51.4   51.7   51.7   49.1  30.153  0.00  0.00     0     0.00      0     0.0  0.00   0.0   0.094   0.000   71.8    55   54.8   71.2  10.11  .0742    0.000   209    5    100.0   10 
 9/20/18  5:30a   51.5   51.5   51.4    92   49.3   2.0   ESE   0.33   6.0     E   51.5   51.8   51.8   49.2  30.150  0.00  0.00     0     0.00      0     0.0  0.00   0.0   0.094   0.000   71.7    55   54.7   71.0  10.12  .0742    0.000   210    5    100.0   10 
 9/20/18  5:40a   51.8   51.8   51.5    92   49.5   2.0   ESE   0.33   4.0   ESE   51.8   52.0   52.0   49.4  30.155  0.00  0.00     0     0.00      0     0.0  0.00   0.0   0.092   0.000   71.7    55   54.7   71.0  10.12  .0742    0.000   213    5    100.0   10 
 9/20/18  5:50a   52.1   52.1   51.8    92   49.8   2.0   ESE   0.33   6.0     E   52.1   52.3   52.3   49.7  30.156  0.00  0.00     0     0.00      0     0.0  0.00   0.0   0.090   0.000   71.6    55   54.6   70.9  10.12  .0742    0.000   212    5    100.0   10 
 9/20/18  6:00a   51.8   52.1   51.8    91   49.3   1.0   ESE   0.17   2.0   ESE   51.8   52.0   52.0   49.4  30.163  0.00  0.00     0     0.00      0     0.0  0.00   0.0   0.092   0.000   71.6    55   54.6   70.9  10.12  .0742    0.000   210    5    100.0   10 
 9/20/18  6:10a   52.0   52.1   51.8    92   49.7   0.0   ESE   0.00   1.0   ESE   52.0   52.2   52.2   49.6  30.164  0.00  0.00     0     0.00      0     0.0  0.00   0.0   0.090   0.000   71.5    55   54.5   70.8  10.12  .0743    0.000   214    5    100.0   10 
 9/20/18  6:20a   51.9   52.0   51.9    92   49.6   0.0   ---   0.00   0.0   ---   51.9   52.1   52.1   49.5  30.166  0.00  0.00     0     0.00      0     0.0  0.00   0.0   0.091   0.000   71.4    55   54.4   70.6  10.12  .0743    0.000   210    5    100.0   10 
 9/20/18  6:30a   51.7   51.9   51.6    92   49.5   1.0   ESE   0.17   4.0     E   51.7   52.0   52.0   49.4  30.168  0.00  0.00     0     0.00      0     0.0  0.00   0.0   0.092   0.000   71.4    55   54.4   70.6  10.12  .0743    0.000   211    5    100.0   10 
 9/20/18  6:40a   51.7   51.7   51.7    92   49.5   3.0     E   0.50   7.0     E   51.6   52.0   51.9   49.3  30.165  0.00  0.00     0     0.00      0     0.0  0.00   0.0   0.092   0.000   71.4    55   54.4   70.6  10.12  .0743    0.000   212    5    100.0   10 
 9/20/18  6:50a   52.1   52.1   51.6    92   49.8   4.0     E   0.67   8.0   ESE   51.3   52.3   51.5   48.9  30.167  0.00  0.00     0     0.00      0     0.0  0.00   0.0   0.090   0.000   71.3    55   54.3   70.5  10.12  .0743    0.000   212    5    100.0   10 
 9/20/18  7:00a   52.5   52.5   52.1    91   49.9   4.0     E   0.67   9.0   ESE   51.8   52.7   52.0   49.4  30.166  0.00  0.00     1     0.01      5     0.0  0.00   0.0   0.087   0.000   71.2    55   54.2   70.3  10.13  .0743    0.000   212    5    100.0   10 
 9/20/18  7:10a   52.7   52.7   52.5    91   50.1   5.0   ESE   0.83   9.0   ESE   51.4   52.9   51.6   49.2  30.167  0.00  0.00     8     0.11     11     0.0  0.00   0.0   0.085   0.000   71.2    55   54.2   70.3  10.13  .0743    0.000   211    5    100.0   10 
 9/20/18  7:20a   52.6   52.7   52.6    91   50.0   6.0   ESE   1.00  10.0   ESE   50.7   52.8   50.9   48.6  30.168  0.00  0.00    12     0.17     14     0.0  0.00   0.0   0.086   0.000   71.1    55   54.1   70.1  10.13  .0743    0.000   212    5    100.0   10 
 9/20/18  7:30a   52.8   52.8   52.6    91   50.2   7.0   ESE   1.17  10.0    SE   50.6   53.0   50.8   48.6  30.171  0.00  0.00    16     0.23     18     0.0  0.00   0.0   0.085   0.000   71.0    55   54.0   70.0  10.13  .0744    0.000   212    5    100.0   10 
 9/20/18  7:40a   52.5   52.8   52.5    90   49.7   7.0   ESE   1.17  11.0   SSE   50.2   52.7   50.4   48.2  30.169  0.00  0.00    20     0.29     21     0.0  0.00   0.0   0.087   0.000   71.0    55   54.0   70.0  10.13  .0744    0.000   213    5    100.0   10 
 9/20/18  7:50a   52.3   52.5   52.2    90   49.5   7.0   ESE   1.17  11.0   ENE   50.0   52.5   50.2   49.3  30.173  0.00  0.00    23     0.33     25     0.0  0.00   0.0   0.088   0.000   71.0    55   54.0   70.0  10.13  .0744    0.000   210    5    100.0   10 
 9/20/18  8:00a   52.5   52.5   52.2    91   49.9   6.0   ESE   1.00  10.0   ESE   50.6   52.7   50.8   50.0  30.177  0.00  0.00    27     0.39     30     0.0  0.00   0.0   0.087   0.000   70.9    55   53.9   69.9  10.13  .0744    0.001   212    5    100.0   10 
 9/20/18  8:10a   53.2   53.2   52.5    91   50.6   5.0   ESE   0.83   9.0   SSE   51.9   53.3   52.0   54.5  30.179  0.00  0.00   103     1.48    142     0.0  0.00   0.0   0.082   0.000   70.9    55   53.9   69.9  10.13  .0744    0.000   210    5    100.0   10 
 9/20/18  8:20a   53.9   53.9   53.2    90   51.0   5.0   ESE   0.83  10.0    SE   52.8   54.0   52.9   57.5  30.180  0.00  0.00   163     2.34    176     0.0  0.00   0.0   0.077   0.000   70.9    55   53.9   69.9  10.13  .0744    0.000   211    5    100.0   10 
 9/20/18  8:30a   54.3   54.4   53.9    89   51.1   5.0   ESE   0.83   9.0   ESE   53.3   54.4   53.4   58.9  30.178  0.00  0.00   191     2.74    202     0.0  0.00   0.0   0.074   0.000   70.9    55   53.9   69.9  10.13  .0744    0.000   212    5    100.0   10 
 9/20/18  8:40a   54.8   54.8   54.3    89   51.6   5.0   ESE   0.83   9.0   ESE   53.9   54.9   54.0   60.2  30.179  0.00  0.00   219     3.14    232     0.0  0.00   0.0   0.071   0.000   70.9    55   53.9   69.9  10.13  .0744    0.000   212    5    100.0   10 
 9/20/18  8:50a   55.7   55.7   54.8    88   52.2   5.0   ESE   0.83  10.0     S   54.9   55.7   54.9   61.8  30.179  0.00  0.00   246     3.53    258     0.0  0.00   0.0   0.065   0.000   70.9    55   53.9   69.9  10.13  .0744    0.000   210    5    100.0   10 
 9/20/18  9:00a   56.3   56.3   55.7    86   52.2   5.0   ESE   0.83  10.0   ESE   55.6   56.2   55.5   63.0  30.177  0.00  0.00   275     3.94    288     0.0  0.00   0.0   0.060   0.000   70.9    55   53.9   69.9  10.13  .0744    0.004   211    5    100.0   10 
 9/20/18  9:10a   56.8   56.8   56.3    85   52.3   6.0   ESE   1.00  10.0   ESE   55.8   56.7   55.7   63.6  30.181  0.00  0.00   303     4.34    316     0.0  0.00   0.0   0.057   0.000   70.9    55   53.9   69.9  10.13  .0744    0.000   210    5    100.0   10 
 9/20/18  9:20a   57.5   57.5   56.8    84   52.7   5.0   ESE   0.83   9.0    SE   57.0   57.4   56.9   65.3  30.182  0.00  0.00   331     4.74    345     0.0  0.00   0.0   0.052   0.000   70.9    55   53.9   69.9  10.13  .0744    0.000   210    5    100.0   10 
 9/20/18  9:30a   58.4   58.4   57.5    83   53.3   5.0   ESE   0.83  11.0   SSE   58.1   58.3   58.0   66.8  30.181  0.00  0.00   359     5.15    371     0.0  0.00   0.0   0.046   0.000   70.9    55   53.9   69.9  10.13  .0744    0.000   213    5    100.0   10 
 9/20/18  9:40a   59.2   59.2   58.4    81   53.4   5.0   ESE   0.83   9.0     E   59.0   59.1   58.9   68.0  30.180  0.00  0.00   387     5.55    399     0.0  0.00   0.0   0.040   0.000   70.9    55   53.9   69.9  10.13  .0744    0.000   214    5    100.0   10 
 9/20/18  9:50a   59.8   59.8   59.3    79   53.3   5.0   ESE   0.83  10.0     E   59.8   59.6   59.6   69.0  30.180  0.00  0.00   413     5.92    424     0.0  0.00   0.0   0.036   0.000   71.0    55   54.0   70.0  10.13  .0744    0.000   212    5    100.0   10 
 9/20/18 10:00a   60.5   60.5   59.8    78   53.6   5.0     E   0.83   8.0     E   60.5   60.3   60.3   69.9  30.178  0.00  0.00   438     6.28    450     0.0  0.00   0.0   0.031   0.000   71.0    55   54.0   70.0  10.13  .0744    0.008   211    5    100.0   10 
 9/20/18 10:10a   61.2   61.2   60.5    77   53.9   5.0     E   0.83   8.0   ESE   61.2   61.0   61.0   70.8  30.175  0.00  0.00   463     6.64    475     0.0  0.00   0.0   0.026   0.000   71.0    55   54.0   70.0  10.13  .0744    0.000   213    5    100.0   10 
 9/20/18 10:20a   62.0   62.0   61.2    76   54.3   4.0     E   0.67   8.0   ESE   62.0   61.9   61.9   71.9  30.177  0.00  0.00   486     6.97    496     0.0  0.00   0.0   0.021   0.000   71.0    55   54.0   70.0  10.13  .0744    0.000   212    5    100.0   10 
 9/20/18 10:30a   61.5   62.2   61.5    74   53.1   2.0     E   0.33  10.0     E   61.5   61.2   61.2   71.4  30.178  0.00  0.00   509     7.30    520     0.0  0.00   0.0   0.024   0.000   71.1    55   54.1   70.1  10.13  .0744    0.000   211    5    100.0   10 
 9/20/18 10:40a   61.5   61.5   61.2    75   53.5   3.0   ESE   0.50   8.0     E   61.5   61.3   61.3   71.6  30.178  0.00  0.00   532     7.63    541     0.0  0.00   0.0   0.024   0.000   71.1    55   54.1   70.1  10.13  .0744    0.000   211    5    100.0   10 
 9/20/18 10:50a   60.5   61.8   60.5    76   52.9   2.0     S   0.33   6.0     E   60.5   60.2   60.2   70.5  30.179  0.00  0.00   552     7.91    561     0.0  0.00   0.0   0.031   0.000   71.2    55   54.2   70.3  10.13  .0743    0.000   212    5    100.0   10 
 9/20/18 11:00a   57.9   60.5   57.9    80   51.8   4.0   SSW   0.67   6.0   SSW   57.9   57.7   57.7   68.1  30.178  0.00  0.00   570     8.17    578     0.0  0.00   0.0   0.049   0.000   71.2    55   54.2   70.3  10.13  .0743    0.011   212    5    100.0   10 
 9/20/18 11:10a   57.0   57.8   57.0    83   51.9   3.0   SSW   0.50   5.0    SW   57.0   56.8   56.8   67.3  30.181  0.00  0.00   588     8.43    596     0.0  0.00   0.0   0.056   0.000   71.3    55   54.3   70.5  10.12  .0743    0.000   212    5    100.0   10 
 9/20/18 11:20a   57.1   57.1   56.8    84   52.3   2.0   SSW   0.33   5.0   SSE   57.1   57.0   57.0   67.6  30.177  0.00  0.00   604     8.66    612     0.0  0.00   0.0   0.055   0.000   71.3    55   54.3   70.5  10.12  .0743    0.000   211    5    100.0   10 
 9/20/18 11:30a   56.9   57.2   56.9    85   52.4   3.0   SSW   0.50   5.0   SSW   56.9   56.8   56.8   67.4  30.177  0.00  0.00   620     8.89    628     0.0  0.00   0.0   0.056   0.000   71.3    55   54.3   70.5  10.12  .0743    0.000   212    5    100.0   10 
 9/20/18 11:40a   56.8   57.2   56.8    86   52.7   3.0    SW   0.50   4.0    SW   56.8   56.7   56.7   67.4  30.177  0.00  0.00   635     9.10    642     0.0  0.00   0.0   0.057   0.000   71.3    55   54.3   70.5  10.12  .0743    0.000   211    5    100.0   10 
 9/20/18 11:50a   57.6   57.6   56.8    87   53.8   2.0   WSW   0.33   4.0   WSW   57.6   57.6   57.6   68.4  30.173  0.00  0.00   648     9.29    654     0.0  0.00   0.0   0.051   0.000   71.2    55   54.2   70.3  10.13  .0743    0.000   212    5    100.0   10 
 9/20/18 12:00p   58.6   58.6   57.6    87   54.7   3.0   NNE   0.50   5.0    NE   58.6   58.6   58.6   69.5  30.171  0.00  0.00   661     9.48    668     0.2  0.01   1.0   0.044   0.000   71.2    55   54.2   70.3  10.13  .0743    0.013   209    5    100.0   10 
 9/20/18 12:10p   59.3   59.3   58.6    86   55.1   3.0     N   0.50   5.0     N   59.3   59.4   59.4   70.4  30.166  0.00  0.00   673     9.65    677     0.2  0.01   1.0   0.040   0.000   71.3    55   54.3   70.5  10.12  .0743    0.000   213    5    100.0   10 
 9/20/18 12:20p   58.7   59.6   58.7    83   53.5   3.0   WNW   0.50   4.0     N   58.7   58.6   58.6   69.5  30.164  0.00  0.00   682     9.78    686     0.4  0.03   1.1   0.044   0.000   71.3    55   54.3   70.5  10.12  .0743    0.000   212    5    100.0   10 
 9/20/18 12:30p   59.1   59.1   58.4    84   54.3   3.0    NW   0.50   4.0   WNW   59.1   59.1   59.1   70.1  30.162  0.00  0.00   689     9.88    693     0.7  0.05   1.3   0.041   0.000   71.4    55   54.4   70.6  10.12  .0743    0.000   214    5    100.0   10 
 9/20/18 12:40p   59.6   59.6   59.0    85   55.1   3.0    NW   0.50   5.0    NW   59.6   59.7   59.7   70.7  30.160  0.00  0.00   696     9.98    700     1.3  0.09   1.3   0.038   0.000   71.4    55   54.4   70.6  10.12  .0743    0.000   212    5    100.0   10 
 9/20/18 12:50p   59.8   59.8   59.6    85   55.3   3.0    NW   0.50   4.0   WNW   59.8   59.9   59.9   70.9  30.159  0.00  0.00   700    10.03    701     1.4  0.10   1.4   0.036   0.000   71.5    55   54.5   70.8  10.12  .0742    0.000   212    5    100.0   10 
 9/20/18  1:00p   61.0   61.0   59.8    85   56.5   3.0     N   0.50   5.0     N   61.0   61.2   61.2   72.3  30.156  0.00  0.00   704    10.09    707     1.5  0.11   1.6   0.028   0.000   71.6    55   54.6   70.9  10.12  .0742    0.014   212    5    100.0   10 
 9/20/18  1:10p   61.3   61.3   61.0    83   56.1   4.0     N   0.67   6.0   NNE   61.3   61.5   61.5   72.6  30.153  0.00  0.00   706    10.12    707     1.6  0.11   1.6   0.026   0.000   71.6    55   54.6   70.9  10.12  .0742    0.000   212    5    100.0   10 
 9/20/18  1:20p   61.9   62.1   61.3    81   56.0   4.0   NNE   0.67   8.0   NNE   61.9   62.1   62.1   73.2  30.153  0.00  0.00   707    10.13    708     1.5  0.11   1.5   0.022   0.000   71.6    55   54.6   70.9  10.12  .0742    0.000   210    5    100.0   10 
 9/20/18  1:30p   61.7   62.1   61.7    80   55.5   5.0     N   0.83   8.0   NNE   61.7   61.8   61.8   72.9  30.156  0.00  0.00   706    10.12    707     1.4  0.10   1.5   0.023   0.000   71.7    55   54.7   71.0  10.12  .0742    0.000   212    5    100.0   10 
 9/20/18  1:40p   62.3   62.3   61.6    80   56.0   5.0     N   0.83   8.0     N   62.3   62.5   62.5   73.6  30.157  0.00  0.00   702    10.06    705     1.3  0.09   1.4   0.019   0.000   71.7    55   54.7   71.0  10.12  .0742    0.000   211    5    100.0   10 
 9/20/18  1:50p   62.6   62.6   62.3    80   56.3   6.0   NNE   1.00  10.0   ENE   62.6   62.9   62.9   74.0  30.157  0.00  0.00   698    10.01    701     1.3  0.09   1.3   0.017   0.000   71.7    55   54.7   71.0  10.12  .0742    0.000   211    5    100.0   10 
 9/20/18  2:00p   63.2   63.2   62.6    78   56.2   8.0    NE   1.33  12.0   NNE   62.3   63.4   62.5   72.9  30.152  0.00  0.00   693     9.93    696     1.2  0.09   1.2   0.012   0.000   71.6    55   54.6   70.9  10.12  .0742    0.016   213    5    100.0   10 
 9/20/18  2:10p   63.6   63.6   63.2    77   56.3   8.0    NE   1.33  12.0    NE   62.8   63.8   63.0   73.3  30.149  0.00  0.00   686     9.83    689     1.0  0.07   1.1   0.010   0.000   71.4    55   54.4   70.6  10.12  .0742    0.000   212    5    100.0   10 
 9/20/18  2:20p   64.0   64.0   63.4    77   56.6   8.0    NE   1.33  12.0    NE   63.2   64.3   63.5   73.8  30.148  0.00  0.00   679     9.73    682     0.9  0.06   0.9   0.007   0.000   71.3    55   54.3   70.5  10.12  .0742    0.000   212    5    100.0   10 
 9/20/18  2:30p   64.3   64.3   64.0    76   56.6   9.0    NE   1.50  12.0    NE   62.8   64.5   63.0   73.0  30.147  0.00  0.00   668     9.58    673     0.7  0.05   0.8   0.005   0.000   71.2    55   54.2   70.3  10.13  .0743    0.000   212    5    100.0   10 
 9/20/18  2:40p   64.5   64.5   64.3    77   57.1   8.0    NE   1.33  13.0    NE   63.8   64.9   64.2   74.5  30.144  0.00  0.00   657     9.42    663     0.4  0.03   0.6   0.003   0.000   71.0    55   54.0   70.0  10.13  .0743    0.000   211    5    100.0   10 
 9/20/18  2:50p   65.0   65.1   64.5    76   57.2   8.0    NE   1.33  13.0    NE   64.4   65.4   64.8   75.1  30.141  0.00  0.00   645     9.25    650     0.0  0.00   0.0   0.000   0.000   71.0    55   54.0   70.0  10.13  .0743    0.000   212    5    100.0   10 
 9/20/18  3:00p   65.1   65.1   64.9    77   57.7   7.0   ENE   1.17  12.0     N   65.1   65.6   65.6   76.3  30.139  0.00  0.00   631     9.05    638     0.0  0.00   0.0   0.000   0.001   71.1    55   54.1   70.1  10.13  .0743    0.016   214    5    100.0   10 
 9/20/18  3:10p   65.0   65.3   65.0    77   57.6   9.0    NE   1.50  13.0   NNE   63.6   65.5   64.1   74.0  30.139  0.00  0.00   616     8.83    622     0.0  0.00   0.0   0.000   0.000   71.2    56   54.7   70.4  10.33  .0742    0.000   210    5    100.0   10 
 9/20/18  3:20p   64.9   65.2   64.9    77   57.5   8.0    NE   1.33  13.0   ENE   64.3   65.3   64.7   74.8  30.139  0.00  0.00   601     8.62    610     0.0  0.00   0.0   0.001   0.000   71.3    56   54.8   70.5  10.32  .0742    0.000   211    5    100.0   10 
 9/20/18  3:30p   65.2   65.2   64.9    78   58.2   8.0    NE   1.33  13.0    NE   64.6   65.8   65.2   75.3  30.136  0.00  0.00   584     8.37    591     0.0  0.00   0.0   0.000   0.001   71.3    56   54.8   70.5  10.32  .0742    0.000   213    5    100.0   10 
 9/20/18  3:40p   64.8   65.2   64.8    78   57.8  10.0    NE   1.67  15.0    NE   62.6   65.3   63.1   72.4  30.134  0.00  0.00   564     8.09    573     0.0  0.00   0.0   0.001   0.000   71.4    56   54.9   70.7  10.32  .0742    0.000   213    5    100.0   10 
 9/20/18  3:50p   64.7   64.8   64.6    79   58.0   9.0    NE   1.50  13.0    NE   63.2   65.3   63.8   73.3  30.136  0.00  0.00   535     7.67    552     0.0  0.00   0.0   0.002   0.000   71.4    56   54.9   70.7  10.32  .0742    0.000   209    5    100.0   10 
 9/20/18  4:00p   65.0   65.0   64.6    79   58.3   9.0    NE   1.50  13.0    NE   63.6   65.6   64.2   73.7  30.133  0.00  0.00   524     7.51    534     0.0  0.00   0.0   0.000   0.000   71.5    56   55.0   70.8  10.32  .0742    0.014   214    5    100.0   10 
 9/20/18  4:10p   64.9   65.0   64.8    79   58.2   8.0    NE   1.33  13.0    NE   64.3   65.5   64.9   74.6  30.135  0.00  0.00   498     7.14    508     0.0  0.00   0.0   0.001   0.000   71.5    56   55.0   70.8  10.32  .0742    0.000   212    5    100.0   10 
 9/20/18  4:20p   65.0   65.1   64.9    79   58.3   7.0    NE   1.17  13.0    NE   65.0   65.6   65.6   75.6  30.136  0.00  0.00   475     6.81    485     0.0  0.00   0.0   0.000   0.000   71.6    56   55.1   71.0  10.32  .0741    0.000   212    5    100.0   10 
 9/20/18  4:30p   64.6   65.0   64.6    79   57.9   8.0   ENE   1.33  14.0    NE   63.9   65.1   64.4   73.8  30.131  0.00  0.00   452     6.48    464     0.0  0.00   0.0   0.003   0.000   71.7    56   55.2   71.1  10.32  .0741    0.000   213    5    100.0   10 
 9/20/18  4:40p   64.5   64.6   64.2    80   58.2   8.0    NE   1.33  13.0    NE   63.8   65.1   64.4   73.6  30.127  0.00  0.00   426     6.11    439     0.0  0.00   0.0   0.003   0.000   71.7    56   55.2   71.1  10.32  .0741    0.000   211    5    100.0   10 
 9/20/18  4:50p   64.6   64.6   64.3    81   58.6   9.0   NNE   1.50  16.0    NE   63.1   65.2   63.7   72.4  30.126  0.00  0.00   402     5.76    413     0.0  0.00   0.0   0.003   0.000   71.7    57   55.7   71.2  10.48  .0741    0.000   213    5    100.0   10 
 9/20/18  5:00p   64.8   64.8   64.6    80   58.5   8.0    NE   1.33  14.0   NNE   64.2   65.5   64.9   73.6  30.127  0.00  0.00   375     5.38    387     0.0  0.00   0.0   0.001   0.000   71.8    57   55.7   71.4  10.48  .0741    0.011   213    5    100.0   10 
 9/20/18  5:10p   64.8   64.8   64.4    80   58.5   7.0    NE   1.17  13.0    NE   64.8   65.5   65.5   74.2  30.128  0.00  0.00   347     4.97    357     0.0  0.00   0.0   0.001   0.000   71.8    57   55.7   71.4  10.48  .0741    0.000   213    5    100.0   10 
 9/20/18  5:20p   64.6   64.9   64.5    80   58.3   8.0    NE   1.33  12.0    NE   63.9   65.2   64.5   72.5  30.124  0.00  0.00   319     4.57    330     0.0  0.00   0.0   0.003   0.000   71.9    57   55.8   71.5  10.47  .0740    0.000   212    5    100.0   10 
 9/20/18  5:30p   64.3   64.6   64.3    80   58.0   8.0    NE   1.33  14.0    NE   63.6   64.9   64.2   71.5  30.127  0.00  0.00   284     4.07    304     0.0  0.00   0.0   0.005   0.000   71.9    57   55.8   71.5  10.47  .0741    0.000   212    5    100.0   10 
 9/20/18  5:40p   63.9   64.3   63.9    82   58.3   8.0   ENE   1.33  14.0   NNE   63.1   64.4   63.6   70.6  30.121  0.00  0.00   261     3.74    274     0.0  0.00   0.0   0.008   0.000   71.9    57   55.8   71.5  10.47  .0740    0.000   211    5    100.0   10 
 9/20/18  5:50p   63.8   64.0   63.8    81   57.9   8.0   ENE   1.33  14.0    NE   63.0   64.3   63.5   69.7  30.115  0.00  0.00   225     3.23    244     0.0  0.00   0.0   0.008   0.000   71.9    57   55.8   71.5  10.47  .0740    0.000   212    5    100.0   10 
 9/20/18  6:00p   63.3   63.8   63.3    82   57.7   8.0   ENE   1.33  13.0   ENE   62.4   63.7   62.8   68.4  30.116  0.00  0.00   200     2.87    213     0.0  0.00   0.0   0.012   0.000   71.8    57   55.7   71.4  10.48  .0740    0.007   213    5    100.0   10 
 9/20/18  6:10p   62.9   63.3   62.9    82   57.3   7.0    NE   1.17  12.0    NE   62.8   63.3   63.2   67.9  30.114  0.00  0.00   162     2.32    171     0.0  0.00   0.0   0.015   0.000   71.9    57   55.8   71.5  10.47  .0740    0.000   211    5    100.0   10 
 9/20/18  6:20p   62.4   62.9   62.4    83   57.2   7.0    NE   1.17  13.0   ENE   62.2   62.7   62.5   66.2  30.116  0.00  0.00   129     1.85    144     0.0  0.00   0.0   0.018   0.000   71.9    57   55.8   71.5  10.47  .0740    0.000   213    5    100.0   10 
 9/20/18  6:30p   62.1   62.4   62.1    83   56.9   6.0   ENE   1.00  12.0    NE   62.1   62.4   62.4   64.6  30.114  0.00  0.00    88     1.26    107     0.0  0.00   0.0   0.020   0.000   71.9    57   55.8   71.5  10.47  .0740    0.000   212    5    100.0   10 
 9/20/18  6:40p   61.4   62.0   61.4    84   56.5   6.0   ENE   1.00  12.0    NE   61.3   61.6   61.5   62.4  30.116  0.00  0.00    57     0.82     74     0.0  0.00   0.0   0.025   0.000   72.0    57   55.9   71.7  10.47  .0740    0.000   213    5    100.0   10 
 9/20/18  6:50p   60.8   61.4   60.7    85   56.3   7.0   ENE   1.17  11.0    NE   60.2   61.0   60.4   60.4  30.114  0.00  0.00    36     0.52     49     0.0  0.00   0.0   0.029   0.000   72.0    57   55.9   71.7  10.47  .0740    0.000   212    5    100.0   10 
 9/20/18  7:00p   60.1   60.8   60.1    86   55.9   7.0   ENE   1.17  12.0   ENE   59.3   60.2   59.4   57.4  30.115  0.00  0.00    16     0.23     21     0.0  0.00   0.0   0.034   0.000   72.0    57   55.9   71.7  10.47  .0740    0.003   213    5    100.0   10 
 9/20/18  7:10p   59.6   60.1   59.6    86   55.4   6.0   ENE   1.00  11.0     E   59.1   59.7   59.2   57.0  30.119  0.00  0.00     9     0.13     12     0.0  0.00   0.0   0.038   0.000   72.0    57   55.9   71.7  10.47  .0740    0.000   212    5    100.0   10 
 9/20/18  7:20p   59.3   59.6   59.3    86   55.1   5.0   ENE   0.83   9.0   ENE   59.2   59.4   59.3   57.0  30.115  0.00  0.00     1     0.01      5     0.0  0.00   0.0   0.040   0.000   72.0    57   55.9   71.7  10.47  .0740    0.000   212    5    100.0   10 
 9/20/18  7:30p   58.8   59.3   58.8    86   54.6   3.0   ENE   0.50   5.0    NE   58.8   58.8   58.8   56.4  30.117  0.00  0.00     0     0.00      0     0.0  0.00   0.0   0.043   0.000   72.0    57   55.9   71.7  10.47  .0740    0.000   213    5    100.0   10 
 9/20/18  7:40p   58.5   58.8   58.5    86   54.3   2.0   ENE   0.33   6.0   ENE   58.5   58.5   58.5   56.1  30.116  0.00  0.00     0     0.00      0     0.0  0.00   0.0   0.045   0.000   71.9    57   55.8   71.5  10.47  .0740    0.000   212    5    100.0   10 
 9/20/18  7:50p   58.2   58.5   58.2    86   54.0   2.0   ENE   0.33   5.0   ENE   58.2   58.2   58.2   55.8  30.114  0.00  0.00     0     0.00      0     0.0  0.00   0.0   0.047   0.000   72.0    57   55.9   71.7  10.47  .0740    0.000   211    5    100.0   10 
 9/20/18  8:00p   57.8   58.2   57.8    85   53.3   2.0   ENE   0.33   4.0   ENE   57.8   57.7   57.7   55.3  30.111  0.00  0.00     0     0.00      0     0.0  0.00   0.0   0.050   0.000   71.9    57   55.8   71.5  10.47  .0740    0.001   212    5    100.0   10 
 9/20/18  8:10p   57.5   57.8   57.5    84   52.7   1.0   ESE   0.17   3.0   ENE   57.5   57.4   57.4   54.9  30.110  0.00  0.00     0     0.00      0     0.0  0.00   0.0   0.052   0.000   71.9    57   55.8   71.5  10.47  .0740    0.000   212    5    100.0   10 
 9/20/18  8:20p   57.3   57.5   57.3    83   52.2   0.0     E   0.00   3.0     E   57.3   57.1   57.1   54.6  30.107  0.00  0.00     0     0.00      0     0.0  0.00   0.0   0.053   0.000   72.0    57   55.9   71.7  10.47  .0740    0.000   211    5    100.0   10 
 9/20/18  8:30p   57.3   57.3   57.3    83   52.2   1.0     E   0.17   3.0     E   57.3   57.1   57.1   54.6  30.108  0.00  0.00     0     0.00      0     0.0  0.00   0.0   0.053   0.000   72.0    57   55.9   71.7  10.47  .0740    0.000   212    5    100.0   10 
 9/20/18  8:40p   57.4   57.5   57.3    83   52.3   1.0    NE   0.17   3.0    NE   57.4   57.2   57.2   54.7  30.109  0.00  0.00     0     0.00      0     0.0  0.00   0.0   0.053   0.000   72.0    57   55.9   71.7  10.47  .0740    0.000   212    5    100.0   10 
 9/20/18  8:50p   56.9   57.4   56.9    82   51.5   1.0    NE   0.17   2.0    NE   56.9   56.7   56.7   54.2  30.107  0.00  0.00     0     0.00      0     0.0  0.00   0.0   0.056   0.000   72.1    57   56.0   71.8  10.47  .0740    0.000   213    5    100.0   10 
 9/20/18  9:00p   56.4   56.9   56.4    82   51.0   1.0     E   0.17   2.0     E   56.4   56.2   56.2   53.6  30.116  0.00  0.00     0     0.00      0     0.0  0.00   0.0   0.060   0.000   72.1    57   56.0   71.8  10.47  .0740    0.001   210    5    100.0   10 
 9/20/18  9:10p   56.0   56.3   56.0    83   50.9   0.0     E   0.00   2.0     E   56.0   55.8   55.8   53.2  30.116  0.00  0.00     0     0.00      0     0.0  0.00   0.0   0.063   0.000   72.1    57   56.0   71.8  10.47  .0740    0.000   213    5    100.0   10 
 9/20/18  9:20p   55.8   56.0   55.8    83   50.7   1.0     E   0.17   2.0     E   55.8   55.6   55.6   53.0  30.114  0.00  0.00     0     0.00      0     0.0  0.00   0.0   0.064   0.000   72.1    57   56.0   71.8  10.47  .0740    0.000   211    5    100.0   10 
 9/20/18  9:30p   55.8   55.9   55.8    83   50.7   0.0     E   0.00   1.0     E   55.8   55.6   55.6   53.0  30.110  0.00  0.00     0     0.00      0     0.0  0.00   0.0   0.064   0.000   72.1    57   56.0   71.8  10.47  .0740    0.000   212    5    100.0   10 
 9/20/18  9:40p   55.7   55.8   55.7    83   50.6   0.0   ESE   0.00   2.0     E   55.7   55.5   55.5   52.9  30.105  0.00  0.00     0     0.00      0     0.0  0.00   0.0   0.065   0.000   72.1    57   56.0   71.8  10.47  .0740    0.000   209    5    100.0   10 
 9/20/18  9:50p   55.7   55.8   55.7    83   50.6   1.0   ESE   0.17   2.0   ESE   55.7   55.5   55.5   52.9  30.105  0.00  0.00     0     0.00      0     0.0  0.00   0.0   0.065   0.000   72.2    57   56.1   72.0  10.46  .0739    0.000   211    5    100.0   10 
 9/20/18 10:00p   55.6   55.7   55.6    84   50.8   0.0   ESE   0.00   1.0   ESE   55.6   55.5   55.5   52.9  30.107  0.00  0.00     0     0.00      0     0.0  0.00   0.0   0.065   0.000   72.1    57   56.0   71.8  10.47  .0740    0.001   211    5    100.0   10 
 9/20/18 10:10p   55.3   55.6   55.3    84   50.5   0.0   ESE   0.00   1.0   ESE   55.3   55.2   55.2   52.6  30.101  0.00  0.00     0     0.00      0     0.0  0.00   0.0   0.067   0.000   72.2    57   56.1   72.0  10.46  .0739    0.000   211    5    100.0   10 
 9/20/18 10:20p   55.2   55.4   55.2    84   50.4   0.0   ESE   0.00   2.0   ESE   55.2   55.1   55.1   52.5  30.099  0.00  0.00     0     0.00      0     0.0  0.00   0.0   0.068   0.000   72.1    57   56.0   71.8  10.47  .0739    0.000   213    5    100.0   10 
 9/20/18 10:30p   55.0   55.2   55.0    84   50.3   0.0   ESE   0.00   2.0   ESE   55.0   54.9   54.9   52.3  30.096  0.00  0.00     0     0.00      0     0.0  0.00   0.0   0.069   0.000   72.1    57   56.0   71.8  10.47  .0739    0.000   211    5    100.0   10 
 9/20/18 10:40p   54.8   55.0   54.8    84   50.1   1.0   ESE   0.17   2.0   ESE   54.8   54.7   54.7   52.1  30.095  0.00  0.00     0     0.00      0     0.0  0.00   0.0   0.071   0.000   72.1    57   56.0   71.8  10.47  .0739    0.000   211    5    100.0   10 
 9/20/18 10:50p   54.7   54.8   54.7    84   50.0   0.0   ESE   0.00   2.0   ESE   54.7   54.6   54.6   52.0  30.093  0.00  0.00     0     0.00      0     0.0  0.00   0.0   0.072   0.000   72.1    57   56.0   71.8  10.47  .0739    0.000   212    5    100.0   10 
 9/20/18 11:00p   54.7   54.8   54.7    84   50.0   0.0   ESE   0.00   2.0   ESE   54.7   54.6   54.6   52.0  30.090  0.00  0.00     0     0.00      0     0.0  0.00   0.0   0.072   0.000   72.1    57   56.0   71.8  10.47  .0739    0.001   213    5    100.0   10 
 9/20/18 11:10p   54.9   54.9   54.6    85   50.5   0.0   ESE   0.00   2.0   ESE   54.9   54.8   54.8   52.2  30.089  0.00  0.00     0     0.00      0     0.0  0.00   0.0   0.070   0.000   72.1    57   56.0   71.8  10.47  .0739    0.000   211    5    100.0   10 
 9/20/18 11:20p   54.6   54.9   54.6    84   49.9   0.0   ESE   0.00   2.0   ESE   54.6   54.5   54.5   51.9  30.085  0.00  0.00     0     0.00      0     0.0  0.00   0.0   0.072   0.000   72.1    57   56.0   71.8  10.47  .0739    0.000   210    5    100.0   10 
 9/20/18 11:30p   54.2   54.6   54.2    85   49.8   1.0   ESE   0.17   2.0   ESE   54.2   54.1   54.1   51.5  30.083  0.00  0.00     0     0.00      0     0.0  0.00   0.0   0.075   0.000   72.1    57   56.0   71.8  10.47  .0739    0.000   213    5    100.0   10 
 9/20/18 11:40p   54.4   54.5   54.2    85   50.0   0.0   ESE   0.00   2.0   ESE   54.4   54.3   54.3   51.7  30.085  0.00  0.00     0     0.00      0     0.0  0.00   0.0   0.074   0.000   72.1    57   56.0   71.8  10.47  .0739    0.000   212    5    100.0   10 
 9/20/18 11:50p   54.2   54.5   54.2    85   49.8   0.0   ESE   0.00   1.0   ESE   54.2   54.1   54.1   51.5  30.086  0.00  0.00     0     0.00      0     0.0  0.00   0.0   0.075   0.000   72.1    57   56.0   71.8  10.47  .0739    0.000   212    5    100.0   10 
 9/21/18 12:00a   54.0   54.2   54.0    85   49.6   0.0   ESE   0.00   2.0   ESE   54.0   53.9   53.9   51.3  30.084  0.00  0.00     0     0.00      0     0.0  0.00   0.0   0.076   0.000   72.0    57   55.9   71.7  10.47  .0739    0.000   213    5    100.0   10 
 9/21/18 12:10a   53.6   54.0   53.6    85   49.2   1.0   ESE   0.17   2.0   ESE   53.6   53.5   53.5   50.9  30.079  0.00  0.00     0     0.00      0     0.0  0.00   0.0   0.079   0.000   72.0    57   55.9   71.7  10.47  .0739    0.000   211    5    100.0   10 
 9/21/18 12:20a   53.5   53.6   53.5    86   49.4   1.0   ESE   0.17   2.0   ESE   53.5   53.4   53.4   50.8  30.078  0.00  0.00     0     0.00      0     0.0  0.00   0.0   0.080   0.000   72.0    57   55.9   71.7  10.47  .0739    0.000   211    5    100.0   10 
 9/21/18 12:30a   53.7   53.7   53.5    86   49.6   0.0   ESE   0.00   2.0   ESE   53.7   53.6   53.6   51.0  30.075  0.00  0.00     0     0.00      0     0.0  0.00   0.0   0.078   0.000   72.0    56   55.4   71.6  10.31  .0739    0.000   211    5    100.0   10 
 9/21/18 12:40a   54.0   54.0   53.7    86   49.9   0.0   ESE   0.00   1.0   ESE   54.0   53.9   53.9   51.3  30.076  0.00  0.00     0     0.00      0     0.0  0.00   0.0   0.076   0.000   71.9    56   55.3   71.4  10.31  .0739    0.000   213    5    100.0   10 
 9/21/18 12:50a   54.0   54.1   54.0    86   49.9   0.0   ESE   0.00   2.0   ESE   54.0   53.9   53.9   51.3  30.069  0.00  0.00     0     0.00      0     0.0  0.00   0.0   0.076   0.000   71.9    56   55.3   71.4  10.31  .0739    0.000   214    5    100.0   10 
 9/21/18  1:00a   53.9   54.0   53.9    86   49.8   1.0   ESE   0.17   5.0     E   53.9   53.8   53.8   51.2  30.068  0.00  0.00     0     0.00      0     0.0  0.00   0.0   0.077   0.000   71.9    56   55.3   71.4  10.31  .0739    0.000   211    5    100.0   10 
 9/21/18  1:10a   53.9   53.9   53.8    85   49.5   3.0     E   0.50   6.0   ESE   53.9   53.8   53.8   51.2  30.057  0.00  0.00     0     0.00      0     0.0  0.00   0.0   0.077   0.000   71.8    56   55.3   71.3  10.31  .0739    0.000   211    5    100.0   10 
 9/21/18  1:20a   54.5   54.5   53.9    84   49.8   3.0     E   0.50   7.0   ESE   54.5   54.4   54.4   51.8  30.052  0.00  0.00     0     0.00      0     0.0  0.00   0.0   0.073   0.000   71.8    56   55.3   71.3  10.31  .0739    0.000   211    5    100.0   10 
 9/21/18  1:30a   54.8   54.8   54.5    83   49.7   3.0     E   0.50   8.0     E   54.8   54.6   54.6   52.0  30.051  0.00  0.00     0     0.00      0     0.0  0.00   0.0   0.071   0.000   71.8    56   55.3   71.3  10.31  .0739    0.000   210    5    100.0   10 
 9/21/18  1:40a   55.0   55.0   54.8    82   49.6   4.0     E   0.67  10.0    SE   54.6   54.8   54.4   51.8  30.043  0.00  0.00     0     0.00      0     0.0  0.00   0.0   0.069   0.000   71.8    56   55.3   71.3  10.31  .0739    0.000   214    5    100.0   10 
 9/21/18  1:50a   54.8   55.0   54.8    82   49.4   7.0   ESE   1.17  12.0   ESE   53.0   54.6   52.8   50.2  30.040  0.00  0.00     0     0.00      0     0.0  0.00   0.0   0.071   0.000   71.7    56   55.2   71.1  10.32  .0739    0.000   212    5    100.0   10 
 9/21/18  2:00a   54.8   54.8   54.6    81   49.1   6.0   ESE   1.00  12.0   SSE   53.4   54.5   53.1   50.5  30.046  0.00  0.00     0     0.00      0     0.0  0.00   0.0   0.071   0.000   71.7    56   55.2   71.1  10.32  .0739    0.001   212    5    100.0   10 
 9/21/18  2:10a   55.2   55.2   54.8    80   49.1   5.0     E   0.83  11.0   ESE   54.3   54.9   54.0   51.4  30.048  0.00  0.00     0     0.00      0     0.0  0.00   0.0   0.068   0.000   71.7    56   55.2   71.1  10.32  .0739    0.000   212    5    100.0   10 
 9/21/18  2:20a   55.6   55.6   55.2    79   49.2   3.0   ENE   0.50   9.0   ENE   55.6   55.2   55.2   52.6  30.049  0.00  0.00     0     0.00      0     0.0  0.00   0.0   0.065   0.000   71.6    56   55.1   71.0  10.32  .0739    0.000   212    5    100.0   10 
 9/21/18  2:30a   55.5   55.6   55.5    78   48.8   0.0   ENE   0.00   2.0   ENE   55.5   55.1   55.1   52.4  30.050  0.00  0.00     0     0.00      0     0.0  0.00   0.0   0.066   0.000   71.6    56   55.1   71.0  10.32  .0739    0.000   212    5    100.0   10 
 9/21/18  2:40a   55.1   55.5   55.1    78   48.4   0.0   ENE   0.00   1.0   ENE   55.1   54.7   54.7   52.0  30.045  0.00  0.00     0     0.00      0     0.0  0.00   0.0   0.069   0.000   71.6    56   55.1   71.0  10.32  .0739    0.000   211    5    100.0   10 
 9/21/18  2:50a   54.9   55.1   54.9    80   48.8   0.0   ENE   0.00   1.0   ENE   54.9   54.6   54.6   51.9  30.040  0.00  0.00     0     0.00      0     0.0  0.00   0.0   0.070   0.000   71.5    56   55.0   70.8  10.32  .0739    0.000   211    5    100.0   10 
 9/21/18  3:00a   54.1   54.8   54.1    80   48.1   1.0   ENE   0.17   3.0   ENE   54.1   53.8   53.8   51.1  30.034  0.00  0.00     0     0.00      0     0.0  0.00   0.0   0.076   0.000   71.5    56   55.0   70.8  10.32  .0739    0.001   210    5    100.0   10 
 9/21/18  3:10a   53.8   54.1   53.8    81   48.1   2.0   ENE   0.33   5.0   ENE   53.8   53.5   53.5   50.8  30.032  0.00  0.00     0     0.00      0     0.0  0.00   0.0   0.078   0.000   71.4    56   54.9   70.7  10.32  .0739    0.000   213    5    100.0   10 
 9/21/18  3:20a   54.9   54.9   53.8    80   48.8   6.0     E   1.00   9.0     E   53.5   54.6   53.2   50.5  30.029  0.00  0.00     0     0.00      0     0.0  0.00   0.0   0.070   0.000   71.4    56   54.9   70.7  10.32  .0739    0.000   212    5    100.0   10 
 9/21/18  3:30a   55.4   55.4   54.9    79   49.0   6.0   ESE   1.00  12.0   ESE   54.1   55.1   53.8   51.1  30.022  0.00  0.00     0     0.00      0     0.0  0.00   0.0   0.067   0.000   71.4    56   54.9   70.7  10.32  .0739    0.000   212    5    100.0   10 
 9/21/18  3:40a   55.5   55.6   55.4    79   49.1   4.0    NE   0.67  10.0    NE   55.2   55.2   54.9   52.3  30.025  0.00  0.00     0     0.00      0     0.0  0.00   0.0   0.066   0.000   71.3    56   54.8   70.5  10.32  .0739    0.000   214    5    100.0   10 
 9/21/18  3:50a   55.2   55.5   55.2    79   48.8   2.0    NE   0.33   8.0    SE   55.2   54.9   54.9   52.2  30.026  0.00  0.00     0     0.00      0     0.0  0.00   0.0   0.068   0.000   71.3    56   54.8   70.5  10.32  .0739    0.000   212    5    100.0   10 
 9/21/18  4:00a   55.2   55.2   55.1    80   49.1   2.0     S   0.33   8.0    SE   55.2   54.9   54.9   52.3  30.026  0.00  0.00     0     0.00      0     0.0  0.00   0.0   0.068   0.000   71.3    56   54.8   70.5  10.32  .0739    0.001   211    5    100.0   10 
 9/21/18  4:10a   54.3   55.2   54.3    83   49.2   2.0    SW   0.33   5.0    SW   54.3   54.1   54.1   51.5  30.026  0.00  0.00     0     0.00      0     0.0  0.00   0.0   0.074   0.000   71.2    56   54.7   70.4  10.33  .0739    0.000   213    5    100.0   10 
 9/21/18  4:20a   53.8   54.3   53.8    84   49.1   2.0   WNW   0.33   4.0    SW   53.8   53.7   53.7   51.1  30.026  0.00  0.00     0     0.00      0     0.0  0.00   0.0   0.078   0.000   71.2    56   54.7   70.4  10.33  .0739    0.000   211    5    100.0   10 
 9/21/18  4:30a   53.6   53.8   53.5    85   49.2   1.0     W   0.17   2.0   WNW   53.6   53.5   53.5   50.9  30.027  0.00  0.00     0     0.00      0     0.0  0.00   0.0   0.079   0.000   71.1    56   54.6   70.2  10.33  .0740    0.000   211    5    100.0   10 
 9/21/18  4:40a   53.3   53.5   53.3    86   49.2   1.0     W   0.17   3.0     W   53.3   53.2   53.2   50.6  30.028  0.00  0.00     0     0.00      0     0.0  0.00   0.0   0.081   0.000   71.1    56   54.6   70.2  10.33  .0740    0.000   211    5    100.0   10 
 9/21/18  4:50a   53.0   53.3   53.0    87   49.2   1.0     W   0.17   2.0     W   53.0   53.0   53.0   50.4  30.025  0.00  0.00     0     0.00      0     0.0  0.00   0.0   0.083   0.000   71.1    56   54.6   70.2  10.33  .0740    0.000   212    5    100.0   10 
 9/21/18  5:00a   52.8   53.0   52.7    86   48.7   0.0     W   0.00   1.0     W   52.8   52.8   52.8   50.1  30.025  0.00  0.00     0     0.00      0     0.0  0.00   0.0   0.085   0.000   71.0    56   54.5   70.1  10.33  .0740    0.001   211    5    100.0   10 
 9/21/18  5:10a   52.6   52.7   52.5    87   48.8   1.0   SSW   0.17   3.0   SSW   52.6   52.6   52.6   49.9  30.025  0.00  0.00     0     0.00      0     0.0  0.00   0.0   0.086   0.000   71.0    56   54.5   70.1  10.33  .0740    0.000   213    5    100.0   10 
 9/21/18  5:20a   52.4   52.6   52.4    87   48.6   0.0   SSW   0.00   2.0   SSW   52.4   52.4   52.4   49.7  30.022  0.00  0.00     0     0.00      0     0.0  0.00   0.0   0.087   0.000   70.9    56   54.4   70.0  10.33  .0740    0.000   211    5    100.0   10 
 9/21/18  5:30a   52.1   52.4   52.1    88   48.7   0.0   SSW   0.00   1.0   SSW   52.1   52.2   52.2   49.5  30.016  0.00  0.00     0     0.00      0     0.0  0.00   0.0   0.090   0.000   70.9    56   54.4   70.0  10.33  .0740    0.000   212    5    100.0   10 
 9/21/18  5:40a   52.0   52.1   51.9    88   48.6   0.0   SSW   0.00   1.0   SSW   52.0   52.1   52.1   49.4  30.014  0.00  0.00     0     0.00      0     0.0  0.00   0.0   0.090   0.000   70.9    55   53.9   69.9  10.13  .0740    0.000   212    5    100.0   10 
 9/21/18  5:50a   52.0   52.0   51.9    89   48.9   1.0   SSW   0.17   2.0   SSW   52.0   52.2   52.2   49.5  30.011  0.00  0.00     0     0.00      0     0.0  0.00   0.0   0.090   0.000   70.8    55   53.8   69.7  10.13  .0740    0.000   213    5    100.0   10 
 9/21/18  6:00a   52.2   52.2   52.0    89   49.1   0.0   SSW   0.00   2.0   SSW   52.2   52.3   52.3   49.7  30.009  0.00  0.00     0     0.00      0     0.0  0.00   0.0   0.089   0.000   70.8    55   53.8   69.7  10.13  .0740    0.000   212    5    100.0   10 
 9/21/18  6:10a   52.0   52.2   52.0    89   48.9   2.0   ENE   0.33   9.0   ENE   52.0   52.2   52.2   49.5  30.005  0.00  0.00     0     0.00      0     0.0  0.00   0.0   0.090   0.000   70.7    55   53.7   69.6  10.14  .0740    0.000   211    5    100.0   10 
 9/21/18  6:20a   53.2   53.2   52.1    89   50.0   6.0     E   1.00  10.0     E   51.4   53.3   51.5   48.9  30.004  0.00  0.00     0     0.00      0     0.0  0.00   0.0   0.082   0.000   70.7    55   53.7   69.6  10.14  .0740    0.000   212    5    100.0   10 
 9/21/18  6:30a   54.4   54.4   53.2    87   50.6   6.0   ENE   1.00  10.0     E   52.9   54.4   52.9   50.3  30.004  0.00  0.00     0     0.00      0     0.0  0.00   0.0   0.074   0.000   70.6    55   53.6   69.5  10.14  .0740    0.000   211    5    100.0   10 
 9/21/18  6:40a   55.0   55.0   54.5    85   50.6   4.0     E   0.67  10.0   ENE   54.6   54.9   54.5   51.9  30.007  0.00  0.00     0     0.00      0     0.0  0.00   0.0   0.069   0.000   70.6    55   53.6   69.5  10.14  .0740    0.000   212    5    100.0   10 
 9/21/18  6:50a   55.5   55.5   55.1    84   50.7   3.0   ESE   0.50   8.0   SSE   55.5   55.4   55.4   52.8  30.003  0.00  0.00     0     0.00      0     0.0  0.00   0.0   0.066   0.000   70.6    55   53.6   69.5  10.14  .0740    0.000   213    5    100.0   10 
 9/21/18  7:00a   55.6   55.6   55.5    83   50.5   3.0     E   0.50   8.0    SE   55.6   55.4   55.4   52.8  30.002  0.00  0.00     0     0.00      0     0.0  0.00   0.0   0.065   0.000   70.5    55   53.6   69.3  10.14  .0740    0.000   212    5    100.0   10 
 9/21/18  7:10a   55.8   55.8   55.6    82   50.4   3.0   SSE   0.50   7.0   ESE   55.8   55.6   55.6   53.2  30.000  0.00  0.00     8     0.11     14     0.0  0.00   0.0   0.064   0.000   70.5    55   53.6   69.3  10.14  .0740    0.000   213    5    100.0   10 
 9/21/18  7:20a   55.7   55.8   55.7    82   50.3   2.0     E   0.33   7.0    SE   55.7   55.5   55.5   53.4  30.005  0.00  0.00    19     0.27     21     0.0  0.00   0.0   0.065   0.000   70.4    55   53.5   69.2  10.14  .0740    0.000   212    5    100.0   10 
 9/21/18  7:30a   55.0   55.7   55.0    82   49.6   2.0   WSW   0.33   4.0    SW   55.0   54.8   54.8   52.7  30.016  0.00  0.00    24     0.34     25     0.0  0.00   0.0   0.069   0.000   70.5    55   53.6   69.3  10.14  .0741    0.000   212    5    100.0   10 
 9/21/18  7:40a   54.3   55.0   54.3    82   48.9   2.0   SSW   0.33   4.0    SW   54.3   54.1   54.1   52.0  30.020  0.00  0.00    26     0.37     28     0.0  0.00   0.0   0.074   0.000   70.4    55   53.5   69.2  10.14  .0741    0.000   213    5    100.0   10 
 9/21/18  7:50a   54.1   54.3   54.1    83   49.1   1.0    NW   0.17   3.0    SE   54.1   53.9   53.9   53.5  30.022  0.00  0.00    32     0.46     37     0.0  0.00   0.0   0.076   0.000   70.4    55   53.5   69.2  10.14  .0741    0.000   211    5    100.0   10 
 9/21/18  8:00a   53.8   54.2   53.8    83   48.8   1.0    SE   0.17   4.0   ESE   53.8   53.6   53.6   53.7  30.025  0.00  0.00    45     0.65     58     0.0  0.00   0.0   0.078   0.000   70.5    55   53.6   69.3  10.14  .0741    0.001   212    5    100.0   10 
 9/21/18  8:10a   53.8   53.8   53.7    84   49.1   1.0    SE   0.17   2.0    SE   53.8   53.7   53.7   57.5  30.027  0.00  0.00   141     2.02    163     0.0  0.00   0.0   0.078   0.000   70.5    55   53.6   69.3  10.14  .0741    0.000   212    5    100.0   10 
 9/21/18  8:20a   54.1   54.1   53.7    85   49.7   1.0    SE   0.17   2.0    SE   54.1   54.0   54.0   58.6  30.027  0.00  0.00   167     2.39    192     0.0  0.00   0.0   0.076   0.000   70.5    55   53.6   69.3  10.14  .0741    0.000   213    5    100.0   10 
 9/21/18  8:30a   54.1   54.2   54.1    85   49.7   1.0   SSE   0.17   3.0     S   54.1   54.0   54.0   58.7  30.020  0.00  0.00   170     2.44    195     0.0  0.00   0.0   0.076   0.000   70.5    55   53.6   69.3  10.14  .0741    0.000   212    5    100.0   10 
 9/21/18  8:40a   54.7   54.7   54.1    86   50.6   1.0   SSE   0.17   2.0   SSE   54.7   54.6   54.6   61.3  30.015  0.00  0.00   235     3.37    258     0.0  0.00   0.0   0.072   0.000   70.5    55   53.6   69.3  10.14  .0741    0.000   213    5    100.0   10 
 9/21/18  8:50a   55.2   55.2   54.7    86   51.1   2.0   NNW   0.33   3.0   NNW   55.2   55.1   55.1   61.8  30.017  0.00  0.00   241     3.45    288     0.0  0.00   0.0   0.068   0.000   70.5    55   53.6   69.3  10.14  .0741    0.000   209    5    100.0   10 
 9/21/18  9:00a   56.1   56.1   55.2    86   52.0   1.0   SSW   0.17   4.0   SSE   56.1   56.0   56.0   63.7  30.015  0.00  0.00   287     4.11    301     0.0  0.00   0.0   0.062   0.000   70.6    55   53.6   69.5  10.14  .0740    0.004   213    5    100.0   10 
 9/21/18  9:10a   57.2   57.2   56.2    85   52.7   1.0     N   0.17   3.0   SSW   57.2   57.1   57.1   65.0  30.020  0.00  0.00   299     4.29    306     0.0  0.00   0.0   0.054   0.000   70.6    55   53.6   69.5  10.14  .0741    0.000   214    5    100.0   10 
 9/21/18  9:20a   57.1   57.4   57.1    83   52.0   1.0     N   0.17   2.0     N   57.1   56.9   56.9   65.2  30.015  0.00  0.00   328     4.70    359     0.0  0.00   0.0   0.055   0.000   70.6    55   53.6   69.5  10.14  .0740    0.000   213    5    100.0   10 
 9/21/18  9:30a   57.5   57.5   57.1    84   52.7   2.0     N   0.33   4.0   NNE   57.5   57.4   57.4   66.4  30.013  0.00  0.00   371     5.32    392     0.0  0.00   0.0   0.052   0.000   70.7    55   53.7   69.6  10.14  .0740    0.000   213    5    100.0   10 
 9/21/18  9:40a   57.3   57.5   57.3    84   52.5   3.0   NNE   0.50   4.0     N   57.3   57.2   57.2   64.0  30.016  0.00  0.00   279     4.00    373     0.0  0.00   0.0   0.053   0.000   70.7    55   53.7   69.6  10.14  .0740    0.000   213    5    100.0   10 
 9/21/18  9:50a   57.6   57.6   57.2    85   53.1   2.0   ENE   0.33   3.0   NNE   57.6   57.5   57.5   62.9  30.012  0.00  0.00   232     3.33    272     0.0  0.00   0.0   0.051   0.000   70.7    55   53.7   69.6  10.14  .0740    0.000   213    5    100.0   10 
 9/21/18 10:00a   57.5   57.7   57.5    85   53.0   1.0   ENE   0.17   2.0    NE   57.5   57.4   57.4   63.9  30.007  0.00  0.00   283     4.06    417     0.0  0.00   0.0   0.052   0.000   70.7    55   53.7   69.6  10.14  .0740    0.006   209    5    100.0   10 
 9/21/18 10:10a   56.8   57.5   56.8    85   52.3   1.0   ENE   0.17   3.0     N   56.8   56.7   56.7   65.2  30.013  0.00  0.00   383     5.49    464     0.0  0.00   0.0   0.057   0.000   70.7    55   53.7   69.6  10.14  .0740    0.000   213    5    100.0   10 
 9/21/18 10:20a   56.7   56.8   56.5    86   52.6   2.0   SSW   0.33   3.0    NW   56.7   56.6   56.6   66.3  30.014  0.00  0.00   468     6.71    547     0.0  0.00   0.0   0.058   0.000   70.8    55   53.8   69.7  10.13  .0740    0.000   212    5    100.0   10 
 9/21/18 10:30a   56.7   56.9   56.7    86   52.6   2.0   SSW   0.33   4.0   SSW   56.7   56.6   56.6   66.3  30.012  0.00  0.00   475     6.81    571     0.0  0.00   0.0   0.058   0.000   70.8    55   53.8   69.7  10.13  .0740    0.000   214    5    100.0   10 
 9/21/18 10:40a   56.7   56.7   56.6    86   52.6   3.0     S   0.50   5.0   SSW   56.7   56.6   56.6   66.3  30.005  0.00  0.00   483     6.92    610     0.0  0.00   0.0   0.058   0.000   70.9    55   53.9   69.9  10.13  .0740    0.000   213    5    100.0   10 
 9/21/18 10:50a   56.7   56.7   56.6    87   52.9   3.0   SSW   0.50   5.0     S   56.7   56.7   56.7   66.6  30.009  0.00  0.00   511     7.33    617     0.0  0.00   0.0   0.058   0.000   70.9    55   53.9   69.9  10.13  .0740    0.000   211    5    100.0   10 
 9/21/18 11:00a   56.7   56.8   56.7    87   52.9   3.0     S   0.50   4.0     S   56.7   56.7   56.7   64.5  30.009  0.00  0.00   391     5.61    524     0.0  0.00   0.0   0.058   0.000   71.0    55   54.0   70.0  10.13  .0740    0.009   214    5    100.0   10 
 9/21/18 11:10a   56.8   56.8   56.7    88   53.3   3.0   SSW   0.50   5.0   SSW   56.8   56.8   56.8   64.9  30.012  0.00  0.00   412     5.91    476     0.0  0.00   0.0   0.057   0.000   71.1    56   54.6   70.2  10.33  .0739    0.000   212    5    100.0   10 
 9/21/18 11:20a   56.8   57.0   56.8    88   53.3   3.0     S   0.50   5.0   WSW   56.8   56.8   56.8   64.9  30.018  0.00  0.00   415     5.95    469     0.0  0.00   0.0   0.057   0.000   71.1    56   54.6   70.2  10.33  .0739    0.000   213    5    100.0   10 
 9/21/18 11:30a   56.9   57.0   56.7    88   53.4   3.0   SSW   0.50   5.0    SW   56.9   56.9   56.9   64.5  30.018  0.00  0.00   395     5.66    459     0.0  0.00   0.0   0.056   0.000   71.2    56   54.7   70.4  10.33  .0739    0.000   211    5    100.0   10 
 9/21/18 11:40a   56.9   57.0   56.8    88   53.4   2.0     S   0.33   4.0     S   56.9   56.9   56.9   65.1  30.017  0.00  0.00   431     6.18    682     0.0  0.00   0.0   0.056   0.000   71.2    56   54.7   70.4  10.33  .0739    0.000   212    5    100.0   10 
 9/21/18 11:50a   56.9   56.9   56.8    89   53.7   2.0     S   0.33   4.0     S   56.9   57.0   57.0   64.6  30.014  0.00  0.00   402     5.76    490     0.0  0.00   0.0   0.056   0.000   71.3    56   54.8   70.5  10.32  .0739    0.000   210    5    100.0   10 
 9/21/18 12:00p   57.3   57.4   56.9    89   54.1   2.0     S   0.33   4.0     S   57.3   57.4   57.4   67.4  30.006  0.00  0.00   557     7.98    798     0.1  0.01   0.8   0.053   0.000   71.4    56   54.9   70.7  10.32  .0739    0.009   212    5    100.0   10 
 9/21/18 12:10p   57.2   57.4   57.1    89   54.0   3.0     S   0.50   5.0   SSW   57.2   57.3   57.3   66.5  30.006  0.00  0.00   510     7.31    582     0.0  0.00   0.0   0.054   0.000   71.4    56   54.9   70.7  10.32  .0739    0.000   212    5    100.0   10 
 9/21/18 12:20p   57.3   57.3   57.2    89   54.1   2.0     S   0.33   4.0     S   57.3   57.4   57.4   65.8  30.000  0.00  0.00   454     6.51    563     0.0  0.00   0.0   0.053   0.000   71.4    56   54.9   70.7  10.32  .0738    0.000   210    5    100.0   10 
 9/21/18 12:30p   57.1   57.3   57.1    89   53.9   3.0     S   0.50   4.0   SSW   57.1   57.2   57.2   65.0  30.001  0.00  0.00   424     6.08    497     0.0  0.00   0.0   0.055   0.000   71.5    56   55.0   70.8  10.32  .0738    0.000   214    5    100.0   10 
 9/21/18 12:40p   57.0   57.2   57.0    89   53.8   3.0     S   0.50   5.0   SSW   57.0   57.1   57.1   62.8  30.000  0.00  0.00   315     4.52    378     0.0  0.00   0.0   0.056   0.000   71.6    56   55.1   71.0  10.32  .0738    0.000   211    5    100.0   10 
 9/21/18 12:50p   57.1   57.1   56.9    90   54.2   2.0     S   0.33   5.0   SSW   57.1   57.2   57.2   63.7  29.995  0.00  0.00   355     5.09    410     0.0  0.00   0.0   0.055   0.000   71.6    56   55.1   71.0  10.32  .0738    0.000   213    5    100.0   10 
 9/21/18  1:00p   57.3   57.3   57.1    89   54.1   3.0     S   0.50   5.0     S   57.3   57.4   57.4   64.7  29.999  0.00  0.00   399     5.72    612     0.0  0.00   0.0   0.053   0.000   71.6    55   54.6   70.9  10.12  .0738    0.008   211    5    100.0   10 
 9/21/18  1:10p   57.6   57.6   57.3    90   54.7   2.0     S   0.33   4.0     S   57.6   57.7   57.7   64.5  29.998  0.00  0.00   369     5.29    408     0.0  0.00   0.0   0.051   0.000   71.7    55   54.7   71.0  10.12  .0738    0.000   211    5    100.0   10 
 9/21/18  1:20p   57.7   57.7   57.4    90   54.8   2.0   SSW   0.33   4.0     S   57.7   57.8   57.8   64.8  30.000  0.00  0.00   384     5.50    851     0.2  0.01   1.0   0.051   0.000   71.7    55   54.7   71.0  10.12  .0738    0.000   211    5    100.0   10 
 9/21/18  1:30p   58.0   58.2   57.7    89   54.8   3.0   SSW   0.50   5.0    SW   58.0   58.1   58.1   69.1  30.004  0.00  0.00   696     9.98    784     0.8  0.06   1.5   0.049   0.000   71.8    55   54.8   71.2  10.11  .0738    0.000   213    5    100.0   10 
 9/21/18  1:40p   58.0   58.3   57.8    90   55.1   3.0    SW   0.50   6.0   WSW   58.0   58.1   58.1   65.9  30.006  0.00  0.00   421     6.04    566     0.1  0.01   1.1   0.049   0.000   71.8    56   55.3   71.3  10.31  .0738    0.000   213    5    100.0   10 
 9/21/18  1:50p   57.8   58.0   57.8    90   54.9   3.0   SSW   0.50   6.0     S   57.8   57.9   57.9   64.0  30.006  0.00  0.00   334     4.79    422     0.0  0.00   0.0   0.050   0.000   71.8    56   55.3   71.3  10.31  .0738    0.000   213    5    100.0   10 
 9/21/18  2:00p   57.7   57.8   57.7    90   54.8   3.0   SSW   0.50   5.0     S   57.7   57.8   57.8   62.4  30.009  0.00  0.00   264     3.78    304     0.0  0.00   0.0   0.051   0.000   71.9    56   55.3   71.4  10.31  .0738    0.009   213    5    100.0   10 
 9/21/18  2:10p   57.6   57.7   57.5    90   54.7   4.0     S   0.67   6.0   SSW   57.6   57.7   57.7   62.6  30.004  0.00  0.00   277     3.97    345     0.0  0.00   0.0   0.051   0.000   71.8    56   55.3   71.3  10.31  .0738    0.000   212    5    100.0   10 
 9/21/18  2:20p   58.0   58.0   57.6    90   55.1   3.0     S   0.50   5.0   SSE   58.0   58.1   58.1   65.1  30.001  0.00  0.00   374     5.36    468     0.0  0.00   0.0   0.049   0.000   71.9    56   55.3   71.4  10.31  .0738    0.000   213    5    100.0   10 
 9/21/18  2:30p   58.4   58.4   58.0    90   55.5   4.0   SSW   0.67   7.0   SSE   58.4   58.5   58.5   69.5  30.001  0.00  0.00   693     9.93    751     0.1  0.01   0.7   0.046   0.000   71.9    56   55.3   71.4  10.31  .0738    0.000   213    5    100.0   10 
 9/21/18  2:40p   58.3   58.7   58.3    89   55.1   5.0   SSW   0.83   8.0   SSE   58.0   58.4   58.1   64.3  30.002  0.00  0.00   328     4.70    381     0.0  0.00   0.0   0.047   0.000   71.9    56   55.3   71.4  10.31  .0738    0.000   213    5    100.0   10 
 9/21/18  2:50p   57.9   58.3   57.9    90   55.0   5.0   SSW   0.83   7.0   SSW   57.5   58.0   57.6   63.4  29.999  0.00  0.00   309     4.43    316     0.0  0.00   0.0   0.049   0.000   71.8    56   55.3   71.3  10.31  .0738    0.000   212    5    100.0   10 
 9/21/18  3:00p   57.9   57.9   57.8    90   55.0   4.0   SSW   0.67   7.0   SSW   57.9   58.0   58.0   64.8  30.000  0.00  0.00   350     5.02    366     0.0  0.00   0.0   0.049   0.000   71.8    56   55.3   71.3  10.31  .0738    0.008   211    5    100.0   10 
 9/21/18  3:10p   58.0   58.2   57.9    89   54.8   4.0   SSW   0.67   7.0   SSW   58.0   58.1   58.1   65.2  29.998  0.00  0.00   362     5.19    406     0.0  0.00   0.0   0.049   0.000   71.7    56   55.2   71.1  10.32  .0738    0.000   212    5    100.0   10 
 9/21/18  3:20p   58.1   58.1   58.0    88   54.6   5.0   SSW   0.83   8.0   SSE   57.7   58.1   57.7   64.4  30.003  0.00  0.00   340     4.87    399     0.0  0.00   0.0   0.048   0.000   71.7    56   55.2   71.1  10.32  .0738    0.000   212    5    100.0   10 
 9/21/18  3:30p   58.9   58.9   58.1    87   55.0   5.0   SSW   0.83   8.0   SSW   58.7   59.0   58.8   65.4  30.007  0.00  0.00   326     4.67    348     0.0  0.00   0.0   0.042   0.000   71.6    56   55.1   71.0  10.32  .0738    0.000   213    5    100.0   10 
 9/21/18  3:40p   60.1   60.1   58.9    84   55.2   5.0   SSW   0.83   8.0   SSW   60.1   60.2   60.2   68.8  30.004  0.00  0.00   421     6.04    494     0.0  0.00   0.0   0.034   0.000   71.6    55   54.6   70.9  10.12  .0738    0.000   213    5    100.0   10 
 9/21/18  3:50p   60.8   60.8   60.2    81   54.9   5.0   SSW   0.83   9.0   SSE   60.8   60.8   60.8   68.0  30.000  0.00  0.00   345     4.95    420     0.0  0.00   0.0   0.029   0.000   71.7    55   54.7   71.0  10.12  .0738    0.000   211    5    100.0   10 
 9/21/18  4:00p   60.8   60.8   60.6    80   54.6   5.0   SSW   0.83   8.0   SSW   60.8   60.8   60.8   68.4  30.002  0.00  0.00   358     5.13    466     0.0  0.00   0.0   0.029   0.000   71.7    55   54.7   71.0  10.12  .0738    0.008   213    5    100.0   10 
 9/21/18  4:10p   61.2   61.4   60.8    78   54.3   5.0   SSW   0.83   8.0   SSW   61.2   61.1   61.1   67.1  30.002  0.00  0.00   279     4.00    299     0.0  0.00   0.0   0.026   0.000   71.8    55   54.8   71.2  10.11  .0738    0.000   210    5    100.0   10 
 9/21/18  4:20p   61.0   61.1   60.9    78   54.1   5.0   SSW   0.83   8.0     S   61.0   60.9   60.9   67.6  29.999  0.00  0.00   299     4.29    385     0.0  0.00   0.0   0.028   0.000   71.8    55   54.8   71.2  10.11  .0738    0.000   211    5    100.0   10 
 9/21/18  4:30p   60.5   61.1   60.5    79   54.0   6.0   SSW   1.00  11.0     S   60.2   60.4   60.1   68.0  29.996  0.00  0.00   347     4.97    529     0.0  0.00   0.0   0.031   0.000   71.8    55   54.8   71.2  10.11  .0738    0.000   213    5    100.0   10 
 9/21/18  4:40p   60.2   60.5   60.1    80   54.0   7.0   SSW   1.17   9.0   SSW   59.4   60.1   59.3   66.2  29.995  0.00  0.00   302     4.33    443     0.0  0.00   0.0   0.033   0.000   71.7    55   54.7   71.0  10.12  .0738    0.000   210    5    100.0   10 
 9/21/18  4:50p   60.6   60.7   60.2    79   54.0   6.0   SSW   1.00   9.0   SSE   60.3   60.5   60.2   67.8  29.986  0.00  0.00   315     4.52    408     0.0  0.00   0.0   0.031   0.000   71.8    55   54.8   71.2  10.11  .0738    0.000   211    5    100.0   10 
 9/21/18  5:00p   59.8   60.5   59.8    81   54.0   8.0   SSW   1.33  12.0     S   58.3   59.7   58.2   64.4  29.992  0.00  0.00   266     3.81    311     0.0  0.00   0.0   0.036   0.000   71.7    55   54.7   71.0  10.12  .0738    0.007   213    5    100.0   10 
 9/21/18  5:10p   59.5   59.8   59.3    83   54.3   8.0   SSW   1.33  11.0     S   57.9   59.5   57.9   65.8  29.991  0.00  0.00   328     4.70    424     0.0  0.00   0.0   0.038   0.000   71.6    55   54.6   70.9  10.12  .0738    0.000   210    5    100.0   10 
 9/21/18  5:20p   59.8   59.8   59.5    85   55.3   8.0   SSW   1.33  13.0   SSE   58.3   59.9   58.4   66.7  29.990  0.00  0.00   343     4.92    394     0.0  0.00   0.0   0.036   0.000   71.6    55   54.6   70.9  10.12  .0738    0.000   212    5    100.0   10 
 9/21/18  5:30p   59.9   59.9   59.6    86   55.7  10.0   SSW   1.67  16.0     S   56.9   60.0   57.0   62.5  29.988  0.00  0.00   231     3.31    369     0.0  0.00   0.0   0.035   0.000   71.6    55   54.6   70.9  10.12  .0738    0.000   211    5    100.0   10 
 9/21/18  5:40p   59.9   59.9   59.8    86   55.7  10.0   SSW   1.67  14.0   SSW   56.9   60.0   57.0   59.6  29.986  0.00  0.00   125     1.79    174     0.0  0.00   0.0   0.035   0.000   71.6    55   54.6   70.9  10.12  .0738    0.000   212    5    100.0   10 
 9/21/18  5:50p   59.3   59.9   59.2    87   55.4  11.0   SSW   1.83  17.0    SW   55.5   59.4   55.6   57.6  29.994  0.00  0.00   104     1.49    113     0.0  0.00   0.0   0.040   0.000   71.4    55   54.4   70.6  10.12  .0738    0.000   213    5    100.0   10 
 9/21/18  6:00p   59.2   59.4   59.2    87   55.3  11.0   SSW   1.83  17.0     S   55.4   59.3   55.5   57.3  29.999  0.00  0.00    94     1.35    130     0.0  0.00   0.0   0.040   0.000   71.2    55   54.2   70.3  10.13  .0739    0.005   213    5    100.0   10 
 9/21/18  6:10p   59.8   59.8   59.2    85   55.3  10.0   SSW   1.67  18.0    SW   56.8   59.9   56.9   58.2  30.001  0.00  0.00    76     1.09     90     0.0  0.00   0.0   0.036   0.000   71.1    56   54.6   70.2  10.33  .0739    0.000   211    5    100.0   10 
 9/21/18  6:20p   61.1   61.1   59.9    83   55.9   9.0   SSW   1.50  14.0   SSW   59.0   61.2   59.1   59.6  29.997  0.00  0.00    53     0.76     58     0.0  0.00   0.0   0.027   0.000   71.1    55   54.1   70.1  10.13  .0739    0.000   213    5    100.0   10 
 9/21/18  6:30p   62.2   62.2   61.2    84   57.3   5.0   SSW   0.83  10.0   SSW   62.2   62.5   62.5   62.7  29.992  0.00  0.00    40     0.57     58     0.0  0.00   0.0   0.019   0.000   71.1    56   54.6   70.2  10.33  .0739    0.000   213    5    100.0   10 
 9/21/18  6:40p   62.5   62.5   62.1    85   57.9   6.0     S   1.00  10.0   SSW   62.5   62.9   62.9   62.7  29.990  0.00  0.00    31     0.44     33     0.0  0.00   0.0   0.017   0.000   71.2    56   54.7   70.4  10.33  .0739    0.000   213    5    100.0   10 
 9/21/18  6:50p   62.6   62.7   62.5    86   58.4   6.0   SSW   1.00  12.0   SSW   62.6   63.1   63.1   62.2  29.986  0.00  0.00    17     0.24     21     0.0  0.00   0.0   0.017   0.000   71.3    56   54.8   70.5  10.32  .0738    0.000   212    5    100.0   10 
 9/21/18  7:00p   62.7   62.7   62.6    86   58.5   6.0     S   1.00  10.0     S   62.7   63.2   63.2   61.3  29.984  0.00  0.00    10     0.14     12     0.0  0.00   0.0   0.016   0.000   71.4    56   54.9   70.7  10.32  .0738    0.002   211    5    100.0   10 
 9/21/18  7:10p   62.7   62.7   62.6    85   58.1   5.0   SSW   0.83  10.0   SSW   62.7   63.1   63.1   61.1  29.982  0.00  0.00     4     0.06      7     0.0  0.00   0.0   0.016   0.000   71.4    56   54.9   70.7  10.32  .0738    0.000   213    5    100.0   10 
 9/21/18  7:20p   62.9   62.9   62.7    84   58.0   6.0     S   1.00  11.0   SSW   62.9   63.3   63.3   61.1  29.981  0.00  0.00     0     0.00      0     0.0  0.00   0.0   0.015   0.000   71.5    56   55.0   70.8  10.32  .0738    0.000   214    5    100.0   10 
 9/21/18  7:30p   63.2   63.2   62.9    82   57.6   6.0   SSW   1.00  12.0   SSE   63.2   63.6   63.6   61.4  29.982  0.00  0.00     0     0.00      0     0.0  0.00   0.0   0.012   0.000   71.6    56   55.1   71.0  10.32  .0738    0.000   211    5    100.0   10 
 9/21/18  7:40p   61.7   63.2   61.7    83   56.5   7.0   SSW   1.17  12.0   SSE   61.3   61.9   61.5   59.3  29.986  0.00  0.00     0     0.00      0     0.0  0.00   0.0   0.023   0.000   71.6    56   55.1   71.0  10.32  .0738    0.000   212    5    100.0   10 
 9/21/18  7:50p   60.2   61.5   60.2    87   56.3   8.0   SSW   1.33  12.0   SSE   58.7   60.4   58.9   56.8  29.988  0.00  0.00     0     0.00      0     0.0  0.00   0.0   0.033   0.000   71.7    56   55.2   71.1  10.32  .0738    0.000   212    5    100.0   10 
 9/21/18  8:00p   60.0   60.2   60.0    88   56.4   8.0   SSW   1.33  11.0   SSW   58.5   60.2   58.7   56.6  29.988  0.00  0.00     0     0.00      0     0.0  0.00   0.0   0.035   0.000   71.8    56   55.3   71.3  10.31  .0737    0.001   213    5    100.0   10 
 9/21/18  8:10p   60.4   60.4   60.0    89   57.1   9.0   SSW   1.50  13.0   SSW   58.2   60.7   58.5   56.5  29.991  0.00  0.00     0     0.00      0     0.0  0.00   0.0   0.032   0.000   71.8    56   55.3   71.3  10.31  .0737    0.000   211    5    100.0   10 
 9/21/18  8:20p   60.5   60.5   60.2    89   57.2  10.0   SSW   1.67  15.0     S   57.6   60.8   57.9   56.0  29.989  0.00  0.00     0     0.00      0     0.0  0.00   0.0   0.031   0.000   71.8    56   55.3   71.3  10.31  .0737    0.000   211    5    100.0   10 
 9/21/18  8:30p   61.9   61.9   60.5    87   58.0  10.0   SSW   1.67  17.0     S   59.2   62.3   59.6   57.7  29.985  0.00  0.00     0     0.00      0     0.0  0.00   0.0   0.022   0.000   71.9    56   55.3   71.4  10.31  .0737    0.000   213    5    100.0   10 
 9/21/18  8:40p   62.6   62.6   61.9    85   58.0  10.0   SSW   1.67  19.0   SSE   60.0   63.0   60.4   58.6  29.986  0.00  0.00     0     0.00      0     0.0  0.00   0.0   0.017   0.000   72.0    56   55.4   71.6  10.31  .0737    0.000   213    5    100.0   10 
 9/21/18  8:50p   62.4   62.6   62.4    85   57.8   9.0   SSW   1.50  17.0   SSW   60.5   62.8   60.9   58.9  29.991  0.00  0.00     0     0.00      0     0.0  0.00   0.0   0.018   0.000   72.0    56   55.4   71.6  10.31  .0737    0.000   214    5    100.0   10 
 9/21/18  9:00p   62.6   62.6   62.4    84   57.7   8.0   SSW   1.33  16.0     S   61.6   63.0   62.0   59.9  29.988  0.00  0.00     0     0.00      0     0.0  0.00   0.0   0.017   0.000   72.0    56   55.4   71.6  10.31  .0737    0.001   213    5    100.0   10 
 9/21/18  9:10p   62.9   62.9   62.6    84   58.0   8.0     S   1.33  15.0   SSE   62.0   63.3   62.4   60.3  29.987  0.00  0.00     0     0.00      0     0.0  0.00   0.0   0.015   0.000   72.1    56   55.5   71.7  10.31  .0737    0.000   211    5    100.0   10 
 9/21/18  9:20p   63.4   63.4   62.9    83   58.1   8.0   SSW   1.33  16.0     S   62.5   63.9   63.0   61.0  29.989  0.00  0.00     0     0.00      0     0.0  0.00   0.0   0.011   0.000   72.2    56   55.6   71.9  10.31  .0737    0.000   211    5    100.0   10 
 9/21/18  9:30p   63.4   63.4   63.3    83   58.1   8.0   SSW   1.33  15.0   SSW   62.5   63.9   63.0   61.0  29.990  0.00  0.00     0     0.00      0     0.0  0.00   0.0   0.011   0.000   72.2    56   55.6   71.9  10.31  .0737    0.000   212    5    100.0   10 
 9/21/18  9:40p   63.4   63.5   63.3    84   58.5   9.0   SSW   1.50  20.0   SSW   61.7   63.9   62.2   60.3  29.987  0.00  0.00     0     0.00      0     0.0  0.00   0.0   0.011   0.000   72.2    56   55.6   71.9  10.31  .0737    0.000   211    5    100.0   10 
 9/21/18  9:50p   63.4   63.5   63.4    85   58.8   9.0   SSW   1.50  19.0   SSW   61.7   63.9   62.2   60.3  29.984  0.00  0.00     0     0.00      0     0.0  0.00   0.0   0.011   0.000   72.3    56   55.7   72.0  10.30  .0736    0.000   213    5    100.0   10 
 9/21/18 10:00p   63.0   63.4   63.0    87   59.1  10.0   SSW   1.67  17.0   SSW   60.5   63.6   61.1   59.3  29.985  0.00  0.00     0     0.00      0     0.0  0.00   0.0   0.014   0.000   72.3    56   55.7   72.0  10.30  .0736    0.001   213    5    100.0   10 
 9/21/18 10:10p   62.5   63.0   62.5    89   59.2   9.0   SSW   1.50  20.0   SSE   60.6   63.1   61.2   59.3  29.987  0.00  0.00     0     0.00      0     0.0  0.00   0.0   0.017   0.000   72.3    56   55.7   72.0  10.30  .0737    0.000   212    5    100.0   10 
 9/21/18 10:20p   62.1   62.6   62.1    90   59.1  10.0   SSW   1.67  20.0     S   59.4   62.6   59.9   58.1  29.985  0.00  0.00     0     0.00      0     0.0  0.00   0.0   0.020   0.000   72.4    56   55.8   72.2  10.30  .0736    0.000   213    5    100.0   10 
 9/21/18 10:30p   61.5   62.1   61.5    92   59.2  12.0   SSW   2.00  19.0   SSW   57.5   62.0   58.0   56.3  29.987  0.00  0.00     0     0.00      0     0.0  0.00   0.0   0.024   0.000   72.4    56   55.8   72.2  10.30  .0736    0.000   212    5    100.0   10 
 9/21/18 10:40p   61.2   61.6   61.2    93   59.2  12.0   SSW   2.00  20.0   SSE   57.1   61.7   57.6   55.9  29.988  0.00  0.00     0     0.00      0     0.0  0.00   0.0   0.026   0.000   72.4    56   55.8   72.2  10.30  .0736    0.000   209    5    100.0   10 
 9/21/18 10:50p   60.7   61.1   60.2    94   59.0  12.0   SSW   2.00  18.0    SW   56.6   61.2   57.1   55.4  29.989  0.01  0.00     0     0.00      0     0.0  0.00   0.0   0.030   0.000   72.4    56   55.8   72.2  10.30  .0736    0.000   213    5    100.0   10 
 9/21/18 11:00p   60.7   60.7   60.5    95   59.3  14.0   SSW   2.33  21.0    SE   55.7   61.2   56.2   54.6  29.991  0.00  0.00     0     0.00      0     0.0  0.00   0.0   0.030   0.000   72.5    56   55.9   72.3  10.30  .0736    0.001   211    5    100.0   10 
 9/21/18 11:10p   60.6   60.7   60.5    95   59.2  13.0   SSW   2.17  22.0    SW   56.0   61.1   56.5   54.8  29.990  0.01  0.00     0     0.00      0     0.0  0.00   0.0   0.031   0.000   72.5    56   55.9   72.3  10.30  .0736    0.000   210    5    100.0   10 
 9/21/18 11:20p   60.8   60.8   60.5    95   59.4  14.0   SSW   2.33  22.0   SSE   55.8   61.3   56.3   54.7  29.991  0.00  0.00     0     0.00      0     0.0  0.00   0.0   0.029   0.000   72.5    56   55.9   72.3  10.30  .0736    0.000   213    5    100.0   10 
 9/21/18 11:30p   60.1   60.7   60.1    95   58.7  14.0   SSW   2.33  24.0     S   55.0   60.5   55.4   53.8  29.998  0.00  0.00     0     0.00      0     0.0  0.00   0.0   0.034   0.000   72.5    56   55.9   72.3  10.30  .0736    0.000   212    5    100.0   10 
 9/21/18 11:40p   60.4   60.4   60.1    95   59.0  14.0   SSW   2.33  30.0     S   55.3   60.8   55.7   54.1  29.998  0.00  0.00     0     0.00      0     0.0  0.00   0.0   0.032   0.000   72.5    56   55.9   72.3  10.30  .0736    0.000   212    5    100.0   10 
 9/21/18 11:50p   60.3   60.5   60.3    95   58.9  14.0   SSW   2.33  27.0     S   55.2   60.7   55.6   54.0  30.001  0.00  0.00     0     0.00      0     0.0  0.00   0.0   0.033   0.000   72.5    56   55.9   72.3  10.30  .0737    0.000   211    5    100.0   10 
 9/22/18 12:00a   59.9   60.3   59.9    95   58.5  14.0   SSW   2.33  23.0     S   54.8   60.3   55.2   53.6  30.000  0.00  0.00     0     0.00      0     0.0  0.00   0.0   0.035   0.000   72.5    56   55.9   72.3  10.30  .0736    0.001   213    5    100.0   10 
Email: AdamSPAM@StormwatchersRetreat.com (To send me email remove the word 'SPAM' from my email address.)